Time;durP1;ratioP1;P1;durP2;ratioP2;P2;SDS_P1;SDS_P2;PMS_P1;PMS_P2;Temp;Humidity;BMP_temperature;BMP_pressure;BME280_temperature;BME280_humidity;BME280_pressure;Samples;Min_cycle;Max_cycle;Signal;HPM_P1;HPM_P2
2023/01/29 00:02:24;;;;;;;16.25;8.30;;;;;;;2.58;89.41;99098.13;5068876;28;20040;-91
2023/01/29 00:04:50;;;;;;;14.80;7.35;;;;;;;2.49;89.32;99089.25;5070678;28;20452;-92
2023/01/29 00:07:15;;;;;;;19.83;9.23;;;;;;;2.32;89.25;99070.72;5070856;28;20041;-92
2023/01/29 00:09:41;;;;;;;16.38;7.90;;;;;;;2.31;89.19;99074.22;5071619;28;20044;-93
2023/01/29 00:12:08;;;;;;;17.77;8.63;;;;;;;2.49;88.52;99095.38;5071088;28;20044;-93
2023/01/29 00:14:34;;;;;;;13.35;7.70;;;;;;;2.51;87.84;99096.28;5071049;28;20129;-92
2023/01/29 00:17:01;;;;;;;13.43;7.03;;;;;;;2.33;87.63;99077.72;5069583;28;20052;-94
2023/01/29 00:19:27;;;;;;;13.52;7.15;;;;;;;2.38;87.31;99086.53;5071397;28;20041;-92
2023/01/29 00:21:53;;;;;;;13.00;7.18;;;;;;;2.36;87.03;99089.13;5071154;28;20043;-92
2023/01/29 00:24:19;;;;;;;13.45;6.95;;;;;;;2.40;86.85;99101.41;5071313;28;20048;-92
2023/01/29 00:26:45;;;;;;;17.23;7.80;;;;;;;2.33;86.24;99077.72;5071499;28;20044;-93
2023/01/29 00:29:11;;;;;;;13.32;8.13;;;;;;;2.31;85.59;99068.97;5071401;28;20064;-93
2023/01/29 00:31:37;;;;;;;13.75;6.93;;;;;;;2.41;84.93;99078.69;5070300;28;20510;-92
2023/01/29 00:34:04;;;;;;;15.98;7.40;;;;;;;2.33;85.33;99078.59;5070528;28;20032;-93
2023/01/29 00:36:30;;;;;;;16.90;6.50;;;;;;;2.38;85.33;99108.38;5060037;28;20037;-92
2023/01/29 00:39:01;;;;;;;13.52;6.38;;;;;;;2.19;85.72;99091.59;5057831;28;20117;-93
2023/01/29 00:47:29;;;;;;;14.45;6.68;;;;;;;2.05;85.82;99103.63;5088008;27;20435;-94
2023/01/29 00:49:56;;;;;;;11.27;5.82;;;;;;;2.08;84.94;99098.41;5072953;28;20037;-93
2023/01/29 00:52:23;;;;;;;12.88;6.60;;;;;;;2.22;84.08;99115.22;5081974;28;20443;-92
2023/01/29 00:54:48;;;;;;;11.60;6.93;;;;;;;2.20;83.57;99113.44;5079843;28;20044;-93
2023/01/29 00:57:14;;;;;;;12.48;6.00;;;;;;;2.18;83.50;99116.03;5077024;28;20036;-92
2023/01/29 00:59:40;;;;;;;12.32;6.53;;;;;;;2.20;83.28;99110.81;5077914;28;20444;-93
2023/01/29 01:05:16;;;;;;;13.45;6.55;;;;;;;2.26;81.60;99111.78;5109860;27;20374;-92
2023/01/29 01:07:42;;;;;;;13.88;6.78;;;;;;;2.36;81.37;99122.38;5095186;28;20055;-92
2023/01/29 01:13:11;;;;;;;13.27;6.80;;;;;;;2.41;80.10;99118.06;5134059;27;20371;-93
2023/01/29 01:15:39;;;;;;;15.55;7.10;;;;;;;2.32;80.32;99102.19;5115135;28;20043;-92
2023/01/29 01:18:05;;;;;;;12.88;6.22;;;;;;;2.35;80.64;99125.88;5115835;28;20050;-91
2023/01/29 01:20:33;;;;;;;13.00;6.93;;;;;;;2.30;80.01;99109.16;5116231;28;20458;-92
2023/01/29 01:22:59;;;;;;;14.05;6.93;;;;;;;2.24;79.83;99094.25;5116177;28;20034;-92
2023/01/29 01:25:26;;;;;;;12.77;5.97;;;;;;;2.25;79.45;99096.00;5114815;28;20027;-91
2023/01/29 01:27:52;;;;;;;12.57;6.30;;;;;;;2.19;79.52;99095.94;5114471;28;20039;-92
2023/01/29 01:30:20;;;;;;;13.07;6.07;;;;;;;2.44;78.34;99125.97;5115599;28;20089;-92
2023/01/29 01:32:46;;;;;;;11.55;5.82;;;;;;;2.40;78.06;99111.91;5115534;28;20039;-92
2023/01/29 01:35:13;;;;;;;14.32;6.97;;;;;;;2.51;77.44;99121.66;5114035;28;20050;-92
2023/01/29 01:37:39;;;;;;;12.68;6.60;;;;;;;2.44;77.74;99111.09;5117701;28;20047;-93
2023/01/29 01:40:11;;;;;;;12.13;6.30;;;;;;;2.35;78.29;99108.38;5116062;28;20043;-92
2023/01/29 01:42:38;;;;;;;16.42;6.45;;;;;;;2.42;77.46;99117.19;5117614;28;20053;-93
2023/01/29 01:45:06;;;;;;;10.45;5.38;;;;;;;2.39;77.66;99119.78;5111005;28;20501;-92
2023/01/29 01:47:38;;;;;;;11.02;5.60;;;;;;;2.33;76.96;99093.47;5115740;28;20053;-92
2023/01/29 01:50:08;;;;;;;11.70;6.15;;;;;;;2.41;76.16;99099.69;5113151;28;20715;-93
2023/01/29 01:52:38;;;;;;;12.05;5.57;;;;;;;2.53;75.47;99107.69;5111048;28;20036;-93
2023/01/29 01:55:05;;;;;;;10.52;5.38;;;;;;;2.45;75.94;99114.59;5112063;28;20032;-92
2023/01/29 01:57:32;;;;;;;10.00;5.10;;;;;;;2.41;75.87;99115.44;5113514;28;20496;-92
2023/01/29 02:00:08;;;;;;;10.43;5.00;;;;;;;2.36;76.19;99110.13;5115213;28;20039;-92
2023/01/29 02:11:42;;;;;;;10.38;5.13;;;;;;;2.12;77.88;99123.84;5106373;27;20388;-92
2023/01/29 02:14:09;;;;;;;11.45;5.30;;;;;;;2.17;77.69;99122.16;5071854;28;20051;-92
2023/01/29 02:16:36;;;;;;;13.10;6.22;;;;;;;2.18;76.91;99112.53;5071092;28;20041;-91
2023/01/29 02:19:04;;;;;;;12.93;5.82;;;;;;;2.26;76.54;99114.41;5071423;28;20032;-90
2023/01/29 02:22:05;;;;;;;9.97;5.63;;;;;;;2.33;76.44;99119.72;5071581;28;20047;-93
2023/01/29 02:24:54;;;;;;;12.45;5.00;;;;;;;2.32;76.37;99124.09;5070024;28;20278;-92
2023/01/29 02:27:32;;;;;;;12.38;6.53;;;;;;;2.37;75.99;99129.41;5070354;28;20595;-92
2023/01/29 02:30:05;;;;;;;9.93;5.43;;;;;;;2.37;76.22;99137.28;5088519;28;20065;-92
2023/01/29 02:32:40;;;;;;;13.70;6.15;;;;;;;2.41;74.98;99131.19;5071762;28;20020;-93
2023/01/29 02:38:25;;;;;;;11.80;5.80;;;;;;;2.45;75.39;99136.50;5135292;27;20709;-93
2023/01/29 02:40:57;;;;;;;10.10;5.22;;;;;;;2.31;75.75;99126.69;5114759;28;20146;-92
2023/01/29 02:43:32;;;;;;;9.82;5.18;;;;;;;2.30;76.05;99140.66;5115970;28;20377;-93
2023/01/29 02:46:05;;;;;;;13.30;6.00;;;;;;;2.04;75.85;99102.78;5110983;28;20093;-93
2023/01/29 02:48:42;;;;;;;13.02;6.03;;;;;;;2.28;75.52;99127.53;5116547;28;20395;-93
2023/01/29 02:51:18;;;;;;;10.85;5.30;;;;;;;2.18;75.15;99123.91;5115243;28;20031;-92
2023/01/29 02:53:52;;;;;;;10.82;5.57;;;;;;;2.33;75.04;99133.72;5117087;27;20440;-93
2023/01/29 02:56:23;;;;;;;13.82;6.35;;;;;;;2.28;75.20;99129.25;5115532;28;20031;-94
2023/01/29 02:58:52;;;;;;;12.00;5.90;;;;;;;2.33;75.49;99143.34;5115668;28;20391;-93
2023/01/29 03:01:20;;;;;;;;;;;;;;;2.19;76.79;99151.03;5108342;28;20028;-93
2023/01/29 03:03:51;;;;;;;12.60;5.75;;;;;;;2.15;76.42;99152.75;5115859;28;19929;-92
2023/01/29 03:06:21;;;;;;;11.27;6.00;;;;;;;2.02;76.70;99137.72;5117280;27;20062;-95
2023/01/29 03:08:54;;;;;;;11.95;6.35;;;;;;;1.87;77.65;99129.66;5135837;27;20031;-93
2023/01/29 03:11:20;;;;;;;14.52;7.18;;;;;;;1.90;78.41;99150.66;5140739;27;20038;-92
2023/01/29 03:13:52;;;;;;;16.63;6.90;;;;;;;1.80;78.51;99141.75;5131350;27;20039;-92
2023/01/29 03:16:24;;;;;;;9.60;5.97;;;;;;;1.73;78.57;99130.31;5135400;27;20038;-93
2023/01/29 03:18:55;;;;;;;13.02;6.57;;;;;;;1.78;78.74;99138.28;5136860;27;20041;-91
2023/01/29 03:33:49;;;;;;;18.02;6.60;;;;;;;1.76;81.36;99153.97;5154911;27;20370;-94
2023/01/29 03:36:19;;;;;;;12.88;6.03;;;;;;;1.85;80.99;99150.59;5135952;27;20049;-93
2023/01/29 03:38:45;;;;;;;13.25;6.93;;;;;;;1.88;81.50;99155.00;5135570;27;20043;-91
2023/01/29 03:41:20;;;;;;;15.02;6.97;;;;;;;1.80;81.30;99153.16;5136489;27;20046;-93
2023/01/29 03:43:54;;;;;;;12.90;6.10;;;;;;;1.73;82.41;99146.03;5154016;27;20034;-93
2023/01/29 03:46:27;;;;;;;16.85;7.72;;;;;;;1.76;82.47;99151.34;5136325;27;20115;-94
2023/01/29 03:49:00;;;;;;;15.32;7.95;;;;;;;1.65;83.21;99145.06;5136598;27;20035;-94
2023/01/29 03:51:31;;;;;;;14.43;7.60;;;;;;;1.61;84.19;99148.50;5136407;27;20412;-93
2023/01/29 03:54:06;;;;;;;15.65;7.57;;;;;;;1.68;83.75;99158.22;5136445;27;20063;-93
2023/01/29 03:56:50;;;;;;;15.07;7.70;;;;;;;1.69;83.61;99148.59;5136795;27;20045;-93
2023/01/29 03:59:24;;;;;;;14.52;7.38;;;;;;;1.69;83.99;99156.47;5125682;27;20062;-93
2023/01/29 04:01:53;;;;;;;17.00;8.02;;;;;;;1.70;83.94;99145.13;5133318;27;20041;-92
2023/01/29 04:04:25;;;;;;;16.83;7.40;;;;;;;1.72;83.91;99144.28;5133628;27;20035;-94
2023/01/29 04:06:56;;;;;;;15.32;7.97;;;;;;;1.83;83.71;99170.66;5136622;27;20159;-93
2023/01/29 04:09:28;;;;;;;14.82;7.88;;;;;;;1.87;83.86;99172.47;5136475;27;20075;-92
2023/01/29 04:12:01;;;;;;;16.90;7.88;;;;;;;1.74;83.86;99155.69;5135870;27;20047;-92
2023/01/29 04:14:27;;;;;;;13.85;6.93;;;;;;;1.65;84.52;99155.56;5136343;27;20039;-93
2023/01/29 04:16:59;;;;;;;16.00;8.30;;;;;;;1.63;84.18;99152.03;5135552;27;20035;-92
2023/01/29 04:19:27;;;;;;;17.42;8.18;;;;;;;1.89;84.12;99182.97;5135828;27;20035;-93
2023/01/29 04:22:00;;;;;;;16.85;7.55;;;;;;;1.65;83.85;99145.06;5136469;27;20051;-92
2023/01/29 04:24:26;;;;;;;16.23;8.52;;;;;;;1.71;84.42;99146.88;5136192;27;20039;-92
2023/01/29 04:27:05;;;;;;;15.48;8.00;;;;;;;1.77;84.37;99163.59;5135983;27;20129;-93
2023/01/29 04:29:43;;;;;;;15.95;7.35;;;;;;;1.77;84.92;99166.19;5131897;27;20043;-92
2023/01/29 04:32:15;;;;;;;19.13;8.07;;;;;;;1.76;84.93;99180.19;5135485;27;20045;-93
2023/01/29 04:34:56;;;;;;;14.10;7.03;;;;;;;1.75;84.82;99167.91;5136056;27;20058;-93
2023/01/29 04:37:39;;;;;;;16.95;8.55;;;;;;;1.59;85.69;99161.56;5136006;27;20047;-92
2023/01/29 04:40:17;;;;;;;13.18;6.82;;;;;;;1.47;86.02;99136.91;5136997;27;20399;-92
2023/01/29 04:42:49;;;;;;;17.15;8.20;;;;;;;1.58;86.01;99157.22;5131591;27;20039;-91
2023/01/29 04:45:24;;;;;;;18.13;9.18;;;;;;;1.52;86.23;99158.81;5120945;27;20038;-93
2023/01/29 04:48:02;;;;;;;15.85;7.28;;;;;;;1.50;86.61;99168.44;5121768;27;20050;-93
2023/01/29 04:50:36;;;;;;;13.18;7.30;;;;;;;1.44;86.88;99164.84;5121738;27;20044;-94
2023/01/29 04:53:06;;;;;;;17.98;9.00;;;;;;;1.46;86.83;99158.75;5121267;27;20039;-92
2023/01/29 04:55:37;;;;;;;19.70;8.43;;;;;;;1.55;86.62;99170.25;5121155;27;20130;-91
2023/01/29 04:58:10;;;;;;;18.15;8.50;;;;;;;1.56;86.76;99177.28;5118206;27;20487;-92
2023/01/29 05:00:40;;;;;;;16.50;8.07;;;;;;;1.55;86.81;99165.00;5120531;27;20126;-92
2023/01/29 05:03:08;;;;;;;18.38;7.90;;;;;;;1.60;86.70;99172.94;5121503;27;20053;-91
2023/01/29 05:05:37;;;;;;;13.80;7.20;;;;;;;1.52;86.93;99162.34;5121267;27;20050;-91
2023/01/29 05:08:04;;;;;;;;;;;;;;;1.62;86.59;99172.09;5121506;27;20040;-92
2023/01/29 05:10:30;;;;;;;12.80;6.88;;;;;;;1.51;86.65;99152.72;5122873;27;19919;-91
2023/01/29 05:13:00;;;;;;;16.42;8.23;;;;;;;1.46;86.81;99150.91;5119673;27;20038;-93
2023/01/29 05:15:34;;;;;;;15.10;8.00;;;;;;;1.56;86.26;99158.94;5119950;27;20062;-92
2023/01/29 05:18:01;;;;;;;17.23;7.53;;;;;;;1.47;86.26;99147.41;5120789;27;20039;-91
2023/01/29 05:20:32;;;;;;;13.13;7.10;;;;;;;1.51;86.20;99146.59;5120745;27;20042;-92
2023/01/29 05:22:59;;;;;;;13.48;7.13;;;;;;;1.47;86.04;99145.66;5118765;27;20035;-94
2023/01/29 05:25:27;;;;;;;16.02;7.70;;;;;;;1.60;86.66;99186.03;5118677;27;20038;-93
2023/01/29 05:30:55;;;;;;;16.33;7.93;;;;;;;1.43;86.88;99163.09;5113116;27;20896;-91
2023/01/29 05:33:22;;;;;;;16.10;8.07;;;;;;;1.43;87.05;99167.44;5112904;28;20477;-92
2023/01/29 05:35:49;;;;;;;15.95;8.15;;;;;;;1.54;86.89;99192.09;5112552;28;20097;-92
2023/01/29 05:38:15;;;;;;;15.23;7.10;;;;;;;1.42;86.81;99163.94;5113178;28;20497;-93
2023/01/29 05:40:41;;;;;;;14.10;8.05;;;;;;;1.57;86.86;99188.63;5112445;28;20067;-92
2023/01/29 05:43:14;;;;;;;13.90;6.55;;;;;;;1.46;86.81;99182.34;5112751;28;20040;-93
2023/01/29 05:45:39;;;;;;;16.88;7.40;;;;;;;1.46;86.86;99177.97;5111042;28;20047;-92
2023/01/29 05:48:07;;;;;;;15.80;7.68;;;;;;;1.56;87.03;99194.72;5113043;28;20092;-93
2023/01/29 05:50:32;;;;;;;15.73;7.95;;;;;;;1.55;86.47;99179.88;5112485;28;20044;-92
2023/01/29 05:53:00;;;;;;;16.98;6.85;;;;;;;1.59;86.58;99187.78;5112863;28;20377;-92
2023/01/29 05:55:28;;;;;;;17.55;8.00;;;;;;;1.53;86.72;99186.81;5112704;28;20115;-93
2023/01/29 05:57:54;;;;;;;14.98;7.95;;;;;;;1.48;87.04;99178.00;5113367;28;20044;-93
2023/01/29 06:00:20;;;;;;;15.98;7.45;;;;;;;1.44;87.11;99172.69;5112455;28;20035;-92
2023/01/29 06:02:46;;;;;;;16.23;7.13;;;;;;;1.52;87.07;99180.69;5112407;27;20036;-93
2023/01/29 06:05:14;;;;;;;17.77;9.85;;;;;;;1.47;87.44;99184.09;5111666;28;20039;-94
2023/01/29 06:07:44;;;;;;;16.67;6.93;;;;;;;1.36;87.71;99179.56;5112520;28;20093;-93
2023/01/29 06:10:11;;;;;;;18.10;7.40;;;;;;;1.33;88.23;99178.63;5112311;28;20036;-94
2023/01/29 06:12:37;;;;;;;14.55;6.80;;;;;;;1.37;88.67;99194.44;5111998;28;20040;-94
2023/01/29 06:15:03;;;;;;;16.65;7.68;;;;;;;1.46;88.79;99214.66;5111431;28;20101;-93
2023/01/29 06:17:29;;;;;;;15.73;7.28;;;;;;;1.38;88.72;99201.41;5109969;28;20049;-93
2023/01/29 06:19:55;;;;;;;15.07;6.80;;;;;;;1.40;88.69;99194.47;5112209;28;20130;-92
2023/01/29 06:22:25;;;;;;;15.20;7.28;;;;;;;1.47;88.69;99220.78;5112545;28;20090;-92
2023/01/29 06:24:50;;;;;;;15.85;7.18;;;;;;;1.53;88.43;99223.50;5107809;28;20044;-92
2023/01/29 06:27:16;;;;;;;13.00;7.32;;;;;;;1.56;88.74;99234.94;5112346;28;20044;-92
2023/01/29 06:29:42;;;;;;;13.27;7.25;;;;;;;1.58;88.63;99235.84;5112050;28;20071;-93
2023/01/29 06:32:08;;;;;;;15.98;8.48;;;;;;;1.63;88.86;99243.78;5111829;28;20066;-93
2023/01/29 06:34:34;;;;;;;15.23;7.22;;;;;;;1.51;89.28;99230.47;5111826;28;20093;-93
2023/01/29 06:37:00;;;;;;;15.80;8.15;;;;;;;1.58;88.83;99235.84;5111612;28;20466;-92
2023/01/29 06:39:28;;;;;;;16.10;7.45;;;;;;;1.64;88.41;99229.81;5111866;28;20074;-93
2023/01/29 06:41:54;;;;;;;15.30;7.63;;;;;;;1.76;88.70;99255.34;5098414;28;20497;-93
2023/01/29 06:44:19;;;;;;;15.77;7.35;;;;;;;1.77;88.22;99244.88;5097820;28;20043;-94
2023/01/29 06:46:45;;;;;;;14.38;7.45;;;;;;;1.75;87.90;99222.97;5097758;28;20140;-93
2023/01/29 06:49:11;;;;;;;15.00;6.97;;;;;;;1.87;87.50;99224.06;5098530;28;20497;-93
2023/01/29 06:51:37;;;;;;;14.63;6.68;;;;;;;1.93;87.30;99231.97;5098165;28;20040;-93
2023/01/29 06:54:05;;;;;;;16.33;8.27;;;;;;;2.17;86.13;99255.97;5098014;28;20048;-92
2023/01/29 06:56:32;;;;;;;14.02;6.03;;;;;;;2.20;85.37;99248.13;5098340;28;20557;-93
2023/01/29 06:58:58;;;;;;;14.30;6.80;;;;;;;2.31;85.25;99250.91;5097637;28;20037;-93
2023/01/29 07:01:24;;;;;;;15.88;7.22;;;;;;;2.21;84.94;99239.41;5097564;28;20383;-92
2023/01/29 07:03:50;;;;;;;15.65;7.25;;;;;;;2.29;84.91;99255.25;5098582;28;20040;-93
2023/01/29 07:06:17;;;;;;;14.60;7.53;;;;;;;2.41;84.42;99265.06;5098332;28;20040;-95
2023/01/29 07:08:42;;;;;;;17.33;7.88;;;;;;;2.38;84.26;99249.25;5097819;28;20440;-95
2023/01/29 07:11:08;;;;;;;11.07;6.75;;;;;;;2.49;83.94;99268.63;5097577;28;20066;-93
2023/01/29 07:13:36;;;;;;;12.63;6.00;;;;;;;2.53;84.02;99261.69;5097947;28;20052;-94
2023/01/29 07:16:04;;;;;;;13.85;7.55;;;;;;;2.67;83.42;99276.78;5096775;28;20040;-94
2023/01/29 07:18:30;;;;;;;14.60;7.53;;;;;;;2.78;83.11;99291.78;5096366;28;20162;-95
2023/01/29 07:20:57;;;;;;;18.35;8.13;;;;;;;2.76;83.07;99294.38;5098017;28;20410;-95
2023/01/29 07:23:23;;;;;;;21.55;9.02;;;;;;;2.78;82.69;99282.16;5098046;28;20048;-93
2023/01/29 07:25:49;;;;;;;14.13;6.43;;;;;;;2.77;82.64;99261.13;5097072;28;20048;-93
2023/01/29 07:28:15;;;;;;;12.82;6.50;;;;;;;2.84;82.22;99255.97;5097300;28;20501;-94
2023/01/29 07:30:43;;;;;;;13.93;6.78;;;;;;;3.04;81.44;99284.22;5095713;28;20072;-94
2023/01/29 07:33:09;;;;;;;15.25;8.07;;;;;;;2.97;81.81;99293.78;5096669;28;20057;-93
2023/01/29 07:35:36;;;;;;;14.35;6.75;;;;;;;2.88;81.51;99270.91;5097225;28;20044;-93
2023/01/29 07:38:01;;;;;;;13.10;7.57;;;;;;;2.97;81.98;99292.88;5097779;28;20032;-93
2023/01/29 07:40:27;;;;;;;16.08;7.50;;;;;;;2.97;83.03;99308.63;5096727;28;20040;-94
2023/01/29 07:42:58;;;;;;;14.75;7.57;;;;;;;2.92;83.95;99298.06;5097336;28;20505;-94
2023/01/29 07:45:24;;;;;;;14.35;6.70;;;;;;;3.05;82.24;99307.84;5077170;28;20040;-94
2023/01/29 07:47:53;;;;;;;16.50;7.90;;;;;;;3.05;82.59;99310.47;5088486;28;20040;-93
2023/01/29 07:50:19;;;;;;;19.63;9.07;;;;;;;3.06;83.20;99317.53;5096556;28;20040;-94
2023/01/29 07:52:45;;;;;;;17.23;7.80;;;;;;;3.13;82.81;99321.09;5095789;28;20468;-93
2023/01/29 07:55:11;;;;;;;16.95;7.65;;;;;;;3.05;81.81;99292.09;5095718;28;20062;-93
2023/01/29 07:57:37;;;;;;;18.48;7.95;;;;;;;3.32;80.73;99295.91;5096646;28;20065;-93
2023/01/29 08:00:03;;;;;;;18.77;8.30;;;;;;;3.49;80.69;99312.75;5096598;28;20032;-95
2023/01/29 08:02:29;;;;;;;15.48;7.45;;;;;;;3.45;80.27;99292.53;5096640;28;20044;-94
2023/01/29 08:04:56;;;;;;;18.65;7.82;;;;;;;3.53;80.59;99291.72;5097034;28;20062;-95
2023/01/29 08:07:22;;;;;;;19.17;9.40;;;;;;;3.60;79.78;99293.53;5096604;28;20036;-94
2023/01/29 08:09:48;;;;;;;18.27;9.60;;;;;;;3.78;79.74;99317.38;5096379;28;20036;-94
2023/01/29 08:12:14;;;;;;;18.13;9.15;;;;;;;3.80;79.72;99310.38;5096714;28;20071;-95
2023/01/29 08:14:40;;;;;;;18.58;9.55;;;;;;;3.91;78.33;99307.84;5096464;28;20040;-94
2023/01/29 08:17:05;;;;;;;19.77;10.40;;;;;;;3.95;77.78;99288.59;5096530;28;20493;-95
2023/01/29 08:19:31;;;;;;;16.35;9.18;;;;;;;4.10;77.43;99295.72;5096249;28;20040;-94
2023/01/29 08:21:59;;;;;;;17.80;8.82;;;;;;;4.27;76.63;99306.34;5096057;28;20139;-94
2023/01/29 08:24:24;;;;;;;15.90;9.00;;;;;;;4.40;76.74;99331.00;5096687;28;20121;-95
2023/01/29 08:26:50;;;;;;;18.50;9.35;;;;;;;4.65;74.56;99339.97;5096332;28;20072;-94
2023/01/29 08:29:16;;;;;;;17.13;8.88;;;;;;;4.60;75.62;99326.78;5094609;28;20079;-95
2023/01/29 08:31:42;;;;;;;17.30;9.18;;;;;;;4.64;76.58;99311.84;5097598;28;20372;-94
2023/01/29 08:34:08;;;;;;;18.05;7.32;;;;;;;4.74;74.20;99311.91;5096600;28;20036;-96
2023/01/29 08:36:34;;;;;;;13.00;7.13;;;;;;;5.12;72.87;99334.06;5096472;28;20039;-94
2023/01/29 08:39:02;;;;;;;14.50;7.60;;;;;;;5.11;74.05;99348.97;5096776;28;20044;-94
2023/01/29 08:41:28;;;;;;;17.75;8.68;;;;;;;5.04;72.63;99327.88;5096379;28;20047;-94
2023/01/29 08:43:53;;;;;;;13.13;7.70;;;;;;;5.16;71.73;99330.53;5098139;28;20397;-96
2023/01/29 08:46:19;;;;;;;15.40;7.65;;;;;;;5.26;72.46;99320.91;5097024;28;20097;-95
2023/01/29 08:48:45;;;;;;;13.75;6.18;;;;;;;5.19;70.24;99311.22;5098837;28;20059;-95
2023/01/29 08:51:12;;;;;;;13.32;6.50;;;;;;;5.19;71.23;99327.91;5097982;28;20044;-96
2023/01/29 08:53:38;;;;;;;11.55;6.07;;;;;;;5.10;71.39;99344.59;5099019;28;20051;-95
2023/01/29 08:56:05;;;;;;;13.07;6.63;;;;;;;5.27;70.22;99342.00;5098085;28;20501;-95
2023/01/29 08:58:31;;;;;;;12.90;6.57;;;;;;;5.35;70.60;99308.63;5097708;28;20054;-96
2023/01/29 09:01:05;;;;;;;13.07;6.40;;;;;;;5.63;69.08;99334.19;5096220;28;20040;-94
2023/01/29 09:03:31;;;;;;;10.95;6.45;;;;;;;5.47;69.78;99320.09;5096466;28;20048;-95
2023/01/29 09:05:57;;;;;;;10.25;6.40;;;;;;;5.69;67.95;99352.69;5096099;28;20500;-96
2023/01/29 09:08:23;;;;;;;11.35;5.53;;;;;;;5.65;67.57;99338.59;5097277;28;20063;-95
2023/01/29 09:10:49;;;;;;;11.35;6.45;;;;;;;5.77;67.67;99345.66;5097342;28;20052;-95
2023/01/29 09:13:19;;;;;;;11.07;5.45;;;;;;;5.60;66.14;99328.91;5098102;28;20040;-95
2023/01/29 09:15:45;;;;;;;12.73;5.95;;;;;;;5.65;66.11;99335.94;5097911;28;20044;-93
2023/01/29 09:18:11;;;;;;;9.82;5.18;;;;;;;5.86;65.98;99372.06;5096084;28;20455;-93
2023/01/29 09:20:37;;;;;;;9.57;5.22;;;;;;;5.83;66.29;99347.41;5096417;28;20135;-94
2023/01/29 09:23:04;;;;;;;10.38;5.13;;;;;;;5.92;65.63;99350.94;5097106;28;20051;-95
2023/01/29 09:25:30;;;;;;;10.27;5.00;;;;;;;5.91;65.71;99354.44;5098198;28;20044;-96
2023/01/29 09:27:56;;;;;;;12.10;5.45;;;;;;;5.56;65.62;99339.44;5101151;28;20051;-94
2023/01/29 09:30:24;;;;;;;9.73;5.68;;;;;;;5.95;65.62;99364.16;5096905;28;20397;-95
2023/01/29 09:32:50;;;;;;;9.50;5.32;;;;;;;5.93;63.75;99338.63;5098107;28;20048;-95
2023/01/29 09:35:16;;;;;;;10.90;5.63;;;;;;;6.16;64.64;99344.84;5097678;28;20067;-95
2023/01/29 09:37:42;;;;;;;14.00;5.80;;;;;;;6.27;64.63;99352.75;5096495;28;20040;-94
2023/01/29 09:40:23;;;;;;;11.50;6.13;;;;;;;6.16;63.83;99359.81;5096327;28;20069;-95
2023/01/29 09:42:57;;;;;;;8.60;5.00;;;;;;;6.33;63.67;99362.41;5094423;28;20055;-96
2023/01/29 09:45:27;;;;;;;11.10;5.53;;;;;;;6.41;62.70;99342.16;5095986;28;20076;-94
2023/01/29 09:47:56;;;;;;;10.50;5.88;;;;;;;6.17;63.96;99341.28;5097114;28;20044;-94
2023/01/29 09:50:27;;;;;;;10.07;5.67;;;;;;;6.20;63.97;99352.75;5098104;28;20074;-95
2023/01/29 09:52:57;;;;;;;10.73;5.18;;;;;;;6.26;63.43;99363.31;5097100;28;20384;-96
2023/01/29 09:55:31;;;;;;;9.55;5.38;;;;;;;6.51;62.88;99350.97;5095878;28;20059;-96
2023/01/29 09:57:59;;;;;;;11.77;5.22;;;;;;;6.75;62.20;99361.50;5096855;28;20044;-93
2023/01/29 10:00:32;;;;;;;10.57;5.60;;;;;;;6.90;60.19;99336.78;5096856;28;20040;-94
2023/01/29 10:03:27;;;;;;;10.20;5.20;;;;;;;6.86;60.81;99355.31;5097289;28;20048;-94
2023/01/29 10:06:05;;;;;;;10.88;5.30;;;;;;;6.62;61.99;99313.97;5098137;28;20048;-95
2023/01/29 10:08:48;;;;;;;17.58;8.40;;;;;;;6.81;61.33;99349.13;5096599;28;20036;-94
2023/01/29 10:11:26;;;;;;;11.77;5.72;;;;;;;6.71;60.87;99313.94;5094061;28;20047;-94
2023/01/29 10:14:03;;;;;;;12.53;6.33;;;;;;;6.81;61.33;99325.34;5097920;28;20040;-94
2023/01/29 10:16:50;;;;;;;10.40;5.00;;;;;;;7.26;59.27;99340.16;5099210;28;20085;-94
2023/01/29 10:19:47;;;;;;;12.68;6.32;;;;;;;6.77;61.99;99330.66;5102500;28;20047;-96
2023/01/29 10:22:43;;;;;;;10.57;5.20;;;;;;;7.18;59.99;99310.25;5099256;28;20044;-94
2023/01/29 10:25:12;;;;;;;9.05;5.30;;;;;;;6.95;60.80;99326.19;5100220;28;20055;-95
2023/01/29 10:27:40;;;;;;;11.50;5.45;;;;;;;7.11;59.42;99309.38;5099812;28;20491;-95
2023/01/29 10:30:20;;;;;;;9.63;6.28;;;;;;;6.65;60.32;99321.88;5100628;28;20101;-95
2023/01/29 10:32:49;;;;;;;9.75;5.60;;;;;;;6.89;60.08;99308.56;5104837;28;20036;-95
2023/01/29 10:35:22;;;;;;;10.48;5.40;;;;;;;6.87;60.57;99304.19;5101727;28;20062;-95
2023/01/29 10:37:51;;;;;;;8.45;4.55;;;;;;;7.20;59.39;99330.50;5103378;28;20040;-93
2023/01/29 10:40:20;;;;;;;8.48;4.57;;;;;;;7.03;56.99;99321.75;5100486;28;20044;-93
2023/01/29 10:42:59;;;;;;;9.18;5.03;;;;;;;7.06;57.23;99311.16;5100301;28;20040;-95
2023/01/29 10:45:34;;;;;;;14.25;9.05;;;;;;;7.01;56.88;99285.63;5100902;28;20044;-94
2023/01/29 10:48:33;;;;;;;8.80;4.93;;;;;;;6.89;57.93;99316.50;5099785;28;20044;-94
2023/01/29 10:51:13;;;;;;;8.50;4.97;;;;;;;6.86;58.15;99282.16;5100260;28;20040;-93
2023/01/29 10:53:59;;;;;;;7.43;4.40;;;;;;;7.14;57.99;99289.97;5098889;28;20044;-96
2023/01/29 10:56:42;;;;;;;11.27;5.40;;;;;;;7.44;57.40;99304.81;5100452;28;20435;-93
2023/01/29 10:59:24;;;;;;;11.05;4.88;;;;;;;7.31;56.64;99281.97;5097345;28;20131;-94
2023/01/29 11:01:51;;;;;;;8.85;5.15;;;;;;;7.67;57.13;99295.84;5099392;28;20119;-94
2023/01/29 11:04:18;;;;;;;13.00;5.55;;;;;;;7.78;56.33;99293.97;5101326;28;20409;-95
2023/01/29 11:06:45;;;;;;;7.85;4.93;;;;;;;7.80;56.76;99266.59;5101177;28;20052;-94
2023/01/29 11:09:22;;;;;;;8.25;4.57;;;;;;;8.04;55.44;99280.53;5100361;28;20108;-94
2023/01/29 11:11:52;;;;;;;7.18;4.13;;;;;;;8.00;54.27;99260.25;5081146;28;20486;-94
2023/01/29 11:14:24;;;;;;;8.90;4.78;;;;;;;7.72;56.06;99264.91;5100920;28;20044;-96
2023/01/29 11:16:50;;;;;;;9.32;5.10;;;;;;;7.73;55.79;99253.44;5099255;28;20052;-95
2023/01/29 11:19:34;;;;;;;8.10;4.43;;;;;;;7.79;53.69;99253.41;5100589;28;20070;-95
2023/01/29 11:22:01;;;;;;;8.77;4.30;;;;;;;7.80;54.01;99244.53;5100639;28;20044;-95
2023/01/29 11:24:27;;;;;;;9.20;4.60;;;;;;;7.60;54.73;99256.16;5100202;28;20036;-94
2023/01/29 11:26:56;;;;;;;8.85;4.57;;;;;;;7.60;55.51;99257.94;5099971;28;20079;-96
2023/01/29 11:29:37;;;;;;;8.80;4.90;;;;;;;7.91;55.27;99261.22;5099535;28;20045;-94
2023/01/29 11:32:06;;;;;;;9.10;4.68;;;;;;;8.02;54.96;99250.53;5093496;28;20048;-95
2023/01/29 11:34:33;;;;;;;8.67;4.97;;;;;;;7.88;53.91;99237.44;5100581;28;20604;-95
2023/01/29 11:37:01;;;;;;;9.68;5.45;;;;;;;7.95;53.64;99231.16;5099403;28;20610;-95
2023/01/29 11:39:28;;;;;;;10.35;5.57;;;;;;;7.85;53.95;99229.53;5100861;28;20039;-95
2023/01/29 11:41:57;;;;;;;7.97;4.90;;;;;;;7.97;54.08;99239.97;5100029;28;20065;-94
2023/01/29 11:44:28;;;;;;;12.40;6.25;;;;;;;7.74;54.42;99220.75;5100128;28;20040;-96
2023/01/29 11:46:57;;;;;;;10.98;5.28;;;;;;;8.13;55.29;99242.47;5099395;28;20051;-94
2023/01/29 11:49:33;;;;;;;9.10;5.05;;;;;;;8.12;54.96;99227.50;5098145;28;20058;-95
2023/01/29 11:52:02;;;;;;;9.43;5.00;;;;;;;8.05;53.76;99221.38;5098059;28;20061;-94
2023/01/29 11:54:32;;;;;;;11.20;6.00;;;;;;;8.26;55.28;99240.59;5097949;28;20139;-95
2023/01/29 11:57:00;;;;;;;23.17;10.60;;;;;;;8.32;55.14;99214.91;5097735;28;20044;-96
2023/01/29 11:59:38;;;;;;;8.73;5.05;;;;;;;8.50;53.96;99220.94;5101008;28;20114;-95
2023/01/29 12:02:13;;;;;;;9.45;5.88;;;;;;;8.58;53.96;99212.00;5100214;28;20036;-95
2023/01/29 12:04:40;;;;;;;9.77;5.05;;;;;;;8.81;54.58;99246.19;5101342;28;20055;-95
2023/01/29 12:07:12;;;;;;;11.02;5.63;;;;;;;8.55;53.25;99208.53;5098114;28;20054;-94
2023/01/29 12:09:38;;;;;;;9.25;5.25;;;;;;;8.19;55.57;99229.19;5096794;28;20131;-93
2023/01/29 12:12:31;;;;;;;11.30;6.78;;;;;;;7.92;54.47;99225.03;5098777;28;20072;-96
2023/01/29 12:15:15;;;;;;;12.95;7.95;;;;;;;7.55;56.72;99236.81;5096214;28;20529;-94
2023/01/29 12:17:46;;;;;;;9.27;5.32;;;;;;;7.16;57.30;99215.03;5077890;28;20045;-95
2023/01/29 12:20:19;;;;;;;13.85;8.00;;;;;;;7.10;57.90;99228.28;5083898;28;20040;-94
2023/01/29 12:22:50;;;;;;;9.25;5.95;;;;;;;7.29;57.75;99228.19;5098568;28;20401;-94
2023/01/29 12:25:21;;;;;;;9.98;5.45;;;;;;;7.33;57.42;99224.59;5097711;28;20448;-94
2023/01/29 12:27:55;;;;;;;9.80;5.28;;;;;;;7.34;56.94;99211.38;5097956;28;20136;-93